Bookmark and Share
Track history (hours):
 

PrentiSS Brown

More information available from US FCC via Universal Licensing System and Coast Guard Vessel Documentation Center.

Last reported at 2014-Apr-23 19:21 UTC. Time now 2014-Apr-24 10:58 UTC.
Position N 45°21' W 086°09'.

; draft 5.8 m.

Type: Other ship. MMSI: 366922280.

NotesDate/timePositionNaut miles runAvg speedWind from/ knotsBaromVisibWave heightAir tempDewpointWater temp
2014-Apr-23 19:21N 45°21' W 086°09'8 9.5
2014-Apr-23 18:33N 45°27' W 086°01'8 8.3
2014-Apr-23 17:33N 45°30' W 085°51'9 9.0
2014-Apr-23 16:33N 45°30' W 085°38'8 7.9
2014-Apr-23 15:33N 45°25' W 085°29'4 3.8
2014-Apr-23 14:33N 45°22' W 085°26'2 1.9
2014-Apr-23 13:33N 45°22' W 085°23'1 1.1
2014-Apr-23 12:33N 45°21' W 085°22'1 1.0
2014-Apr-23 11:33N 45°21' W 085°21'1 1.2
2014-Apr-23 10:33N 45°20' W 085°19'2 1.8
2014-Apr-23 09:33N 45°19' W 085°17'0 0.5
2014-Apr-23 08:33N 45°19' W 085°18'0 0.0
2014-Apr-23 07:33N 45°19' W 085°18'0 0.0
2014-Apr-23 06:33N 45°19' W 085°18'0 0.0
2014-Apr-23 05:33N 45°19' W 085°18'0 0.0
2014-Apr-23 04:33N 45°19' W 085°18'0 0.0
2014-Apr-23 03:33N 45°19' W 085°18'0 0.0
2014-Apr-23 02:33N 45°19' W 085°18'0 0.0
2014-Apr-23 01:33N 45°19' W 085°18'0 0.0
2014-Apr-23 00:33N 45°19' W 085°18'0 0.0
2014-Apr-22 23:33N 45°19' W 085°18'1 1.0
2014-Apr-22 22:33N 45°20' W 085°18'1 1.4
2014-Apr-22 21:33N 45°20' W 085°20'0 0.0
2014-Apr-22 20:33N 45°20' W 085°20'0 0.0
2014-Apr-22 19:33N 45°20' W 085°20'0 0.0
2014-Apr-22 18:33N 45°20' W 085°20'0 0.0
2014-Apr-22 17:33N 45°20' W 085°20'0 0.2
2014-Apr-22 16:33N 45°20' W 085°20'0 0.1
2014-Apr-22 15:33N 45°20' W 085°20'2 1.8
2014-Apr-22 14:33N 45°22' W 085°22'2 1.7
2014-Apr-22 13:33N 45°22' W 085°24'3 2.6
2014-Apr-22 12:33N 45°24' W 085°27'6 6.0
2014-Apr-22 11:33N 45°28' W 085°34'6 6.3
2014-Apr-22 10:33N 45°30' W 085°42'1 1.3
2014-Apr-22 09:33N 45°31' W 085°43'0 0.4
2014-Apr-22 08:33N 45°32' W 085°43'0 0.4
2014-Apr-22 07:33N 45°32' W 085°43'1 1.5
2014-Apr-22 06:33N 45°32' W 085°45'9 8.7
2014-Apr-22 05:33N 45°31' W 085°58'5 5.2
2014-Apr-22 04:30N 45°31' W 086°06'29 0.9
2014-Apr-20 20:30N 45°03' W 085°54'7 7.2
2014-Apr-20 19:33N 45°06' W 085°45'8 8.4
2014-Apr-20 18:33N 45°12' W 085°38'9 8.8
2014-Apr-20 17:33N 45°17' W 085°28'7 6.6
2014-Apr-20 16:33N 45°20' W 085°19'2 2.0
2014-Apr-20 15:33N 45°19' W 085°17'0 0.3
2014-Apr-20 14:33N 45°19' W 085°18'0 0.0
2014-Apr-20 13:33N 45°19' W 085°18'0 0.0
2014-Apr-20 12:33N 45°19' W 085°18'0 0.0
2014-Apr-20 11:33N 45°19' W 085°18'0 0.0
2014-Apr-20 10:33N 45°19' W 085°18'0 0.0
2014-Apr-20 09:33N 45°19' W 085°18'0 0.1
2014-Apr-20 08:33N 45°19' W 085°18'1 0.6
2014-Apr-20 07:33N 45°20' W 085°18'1 1.5
2014-Apr-20 06:33N 45°20' W 085°19'5 5.2
2014-Apr-20 05:33N 45°17' W 085°25'3 2.8
2014-Apr-20 04:33N 45°15' W 085°28'4 3.7
2014-Apr-20 03:33N 45°14' W 085°33'5 4.7
2014-Apr-20 02:33N 45°12' W 085°39'6 6.2
2014-Apr-20 01:33N 45°07' W 085°44'7 6.9
2014-Apr-20 00:31N 45°03' W 085°53'11 0.2
2014-Apr-18 01:31N 45°11' W 086°02'7 7.0
2014-Apr-18 00:33N 45°07' W 085°55'5 5.3
2014-Apr-17 23:33N 45°08' W 085°47'4 4.4
2014-Apr-17 22:32N 45°09' W 085°41'8 8.6
2014-Apr-17 21:33N 45°15' W 085°33'7 6.9
2014-Apr-17 20:33N 45°19' W 085°25'5 5.0
2014-Apr-17 19:33N 45°20' W 085°18'1 0.8
2014-Apr-17 18:33N 45°19' W 085°17'0 0.2
2014-Apr-17 17:33N 45°19' W 085°17'0 0.3
2014-Apr-17 16:33N 45°19' W 085°18'0 0.0
2014-Apr-17 15:33N 45°19' W 085°18'0 0.0
2014-Apr-17 14:33N 45°19' W 085°18'0 0.0
2014-Apr-17 13:33N 45°19' W 085°18'0 0.0
2014-Apr-17 12:33N 45°19' W 085°18'0 0.0
2014-Apr-17 11:33N 45°19' W 085°18'0 0.0
2014-Apr-17 10:33N 45°19' W 085°18'0 0.5
2014-Apr-17 09:33N 45°19' W 085°17'0 0.0
2014-Apr-17 08:33N 45°19' W 085°17'0 0.3
2014-Apr-17 07:33N 45°20' W 085°18'1 0.5
2014-Apr-17 06:33N 45°20' W 085°18'1 0.5
2014-Apr-17 05:33N 45°20' W 085°18'0 0.1
2014-Apr-17 04:33N 45°20' W 085°19'0 0.1
2014-Apr-17 03:33N 45°20' W 085°19'0 0.1
2014-Apr-17 02:33N 45°20' W 085°19'0 0.1
2014-Apr-17 01:33N 45°20' W 085°19'6 6.4
2014-Apr-17 00:33N 45°16' W 085°26'8 7.8
2014-Apr-16 23:33N 45°13' W 085°36'5 4.7
2014-Apr-16 22:33N 45°12' W 085°42'3 3.0
2014-Apr-16 21:33N 45°10' W 085°45'1 1.2
2014-Apr-16 20:33N 45°10' W 085°47'1 1.3
2014-Apr-16 19:33N 45°10' W 085°49'2 2.0
2014-Apr-16 18:33N 45°10' W 085°52'2 2.3
2014-Apr-16 17:32N 45°09' W 085°55'  

Dump ship's entire track history

sailing weather and tide predictions

PrentiSS Brown — WDE6848 — position and weather